Time;durP1;ratioP1;P1;durP2;ratioP2;P2;SDS_P1;SDS_P2;PMS_P1;PMS_P2;Temp;Humidity;BMP_temperature;BMP_pressure;BME280_temperature;BME280_humidity;BME280_pressure;Samples;Min_cycle;Max_cycle;Signal;HPM_P1;HPM_P2
2021/07/03 00:00:24;;;;;;;10.23;7.53;;;;;;;15.40;nan;100874.16;5003638;28;20304;-83
2021/07/03 00:02:52;;;;;;;11.63;8.20;;;;;;;15.35;nan;100873.44;4992405;28;20057;-82
2021/07/03 00:05:19;;;;;;;11.13;8.55;;;;;;;15.31;nan;100873.63;5008052;28;20115;-82
2021/07/03 00:07:45;;;;;;;13.63;9.18;;;;;;;15.32;nan;100872.69;5009924;28;20045;-81
2021/07/03 00:10:15;;;;;;;10.45;7.93;;;;;;;15.32;nan;100880.69;5021429;28;20408;-82
2021/07/03 00:12:42;;;;;;;11.32;8.30;;;;;;;15.26;nan;100878.25;5023648;28;20129;-82
2021/07/03 00:15:13;;;;;;;11.35;8.65;;;;;;;15.25;nan;100876.50;5008496;28;20499;-81
2021/07/03 00:17:43;;;;;;;12.48;9.35;;;;;;;15.19;nan;100875.78;4994371;28;20693;-82
2021/07/03 00:20:11;;;;;;;13.30;9.15;;;;;;;15.16;nan;100881.25;5019314;28;20042;-82
2021/07/03 00:22:38;;;;;;;12.15;8.63;;;;;;;15.13;nan;100886.69;4992258;28;20038;-82
2021/07/03 00:25:09;;;;;;;11.95;9.10;;;;;;;15.10;nan;100885.91;5022349;28;20045;-82
2021/07/03 00:27:36;;;;;;;11.48;8.25;;;;;;;15.05;nan;100883.41;5008695;28;20531;-82
2021/07/03 00:30:05;;;;;;;11.65;8.40;;;;;;;15.04;nan;100881.66;5008580;28;20045;-83
2021/07/03 00:32:32;;;;;;;10.02;8.38;;;;;;;14.99;nan;100882.75;5008312;28;20126;-81
2021/07/03 00:35:04;;;;;;;12.45;8.90;;;;;;;14.98;nan;100886.34;5002444;28;20041;-81
2021/07/03 00:37:31;;;;;;;13.77;9.85;;;;;;;14.93;nan;100884.69;4988938;28;20042;-83
2021/07/03 00:40:00;;;;;;;11.82;8.80;;;;;;;14.90;nan;100891.94;5009700;28;20040;-83
2021/07/03 00:42:31;;;;;;;11.93;9.07;;;;;;;14.94;nan;100893.56;5008492;28;20050;-83
2021/07/03 00:44:57;;;;;;;12.75;9.10;;;;;;;14.91;nan;100893.66;5025542;28;20044;-83
2021/07/03 00:47:24;;;;;;;11.73;8.93;;;;;;;14.90;nan;100899.91;5007991;28;20065;-81
2021/07/03 00:49:54;;;;;;;10.93;9.27;;;;;;;14.99;nan;100894.28;5008833;28;20635;-81
2021/07/03 00:52:22;;;;;;;12.45;9.25;;;;;;;14.97;nan;100896.13;5007220;28;20508;-81
2021/07/03 00:54:49;;;;;;;10.70;8.70;;;;;;;14.96;nan;100893.50;5008188;28;20127;-82
2021/07/03 00:57:21;;;;;;;12.35;9.77;;;;;;;14.99;nan;100896.06;5007871;28;20041;-83
2021/07/03 00:59:49;;;;;;;13.85;10.48;;;;;;;15.06;nan;100894.94;5009896;28;20117;-82
2021/07/03 01:02:17;;;;;;;11.57;9.40;;;;;;;15.07;nan;100900.19;4990304;28;20046;-81
2021/07/03 01:04:44;;;;;;;13.75;10.25;;;;;;;15.11;nan;100896.47;4992819;28;20030;-82
2021/07/03 01:07:11;;;;;;;13.40;9.60;;;;;;;15.15;nan;100891.94;4993136;28;20038;-81
2021/07/03 01:09:39;;;;;;;12.52;9.75;;;;;;;15.13;nan;100892.00;4992904;28;20064;-83
2021/07/03 01:12:09;;;;;;;11.02;9.52;;;;;;;15.18;nan;100891.81;5007285;28;20472;-82
2021/07/03 01:14:54;;;;;;;14.45;10.48;;;;;;;15.18;nan;100894.47;5010076;28;20042;-83
2021/07/03 01:17:21;;;;;;;11.70;8.90;;;;;;;15.20;nan;100893.50;4992135;28;20046;-81
2021/07/03 01:19:49;;;;;;;15.50;10.63;;;;;;;15.25;nan;100884.50;4993257;28;20062;-82
2021/07/03 01:22:16;;;;;;;11.63;9.23;;;;;;;15.23;nan;100883.69;5004227;28;20037;-82
2021/07/03 01:24:43;;;;;;;14.38;9.68;;;;;;;15.23;nan;100886.34;5008600;28;20066;-82
2021/07/03 01:27:13;;;;;;;11.25;9.05;;;;;;;15.20;nan;100887.31;4992475;28;20041;-80
2021/07/03 01:29:43;;;;;;;12.85;9.65;;;;;;;15.27;nan;100895.94;5009735;28;20042;-82
2021/07/03 01:32:10;;;;;;;13.93;10.50;;;;;;;15.25;nan;100896.00;5005636;28;20040;-82
2021/07/03 01:34:46;;;;;;;13.00;9.63;;;;;;;15.24;nan;100890.75;4976000;28;20038;-82
2021/07/03 01:37:13;;;;;;;13.95;9.93;;;;;;;15.25;nan;100888.03;5018784;28;20495;-82
2021/07/03 01:39:40;;;;;;;12.95;9.65;;;;;;;15.22;nan;100882.81;5021548;28;20042;-84
2021/07/03 01:42:09;;;;;;;12.18;9.23;;;;;;;15.21;nan;100875.72;5024488;28;20038;-82
2021/07/03 01:44:36;;;;;;;11.93;9.07;;;;;;;15.17;nan;100877.66;4989203;28;20573;-81
2021/07/03 01:47:04;;;;;;;14.13;9.77;;;;;;;15.17;nan;100874.13;5009186;28;20098;-82
2021/07/03 01:49:42;;;;;;;12.75;9.68;;;;;;;15.16;nan;100877.72;5029090;28;20778;-81
2021/07/03 01:52:09;;;;;;;13.07;9.77;;;;;;;15.13;nan;100872.47;5011712;28;20124;-82
2021/07/03 01:54:36;;;;;;;13.63;9.30;;;;;;;15.08;nan;100871.78;5012981;28;20038;-82
2021/07/03 01:57:03;;;;;;;12.38;9.32;;;;;;;15.07;nan;100870.06;5009124;28;20116;-82
2021/07/03 01:59:31;;;;;;;13.95;9.80;;;;;;;14.99;nan;100862.34;4997604;28;20042;-83
2021/07/03 02:02:01;;;;;;;15.02;9.40;;;;;;;14.93;nan;100867.88;5007687;28;20054;-82
2021/07/03 02:04:28;;;;;;;13.48;10.15;;;;;;;14.91;nan;100870.59;5012193;28;20128;-82
2021/07/03 02:06:55;;;;;;;13.82;10.07;;;;;;;14.89;nan;100858.28;5008884;28;20050;-81
2021/07/03 02:09:22;;;;;;;14.52;9.98;;;;;;;14.84;nan;100865.53;5013569;28;20533;-82
2021/07/03 02:11:49;;;;;;;12.38;8.88;;;;;;;14.78;nan;100869.25;5013137;28;20046;-81
2021/07/03 02:14:16;;;;;;;11.55;9.88;;;;;;;14.74;nan;100861.47;5012556;28;20046;-82
2021/07/03 02:16:43;;;;;;;12.57;9.82;;;;;;;14.73;nan;100862.38;5026301;28;20491;-82
2021/07/03 02:19:10;;;;;;;12.98;9.35;;;;;;;14.71;nan;100867.72;4997672;28;20045;-82
2021/07/03 02:21:37;;;;;;;12.00;9.68;;;;;;;14.73;nan;100865.03;5009698;28;20478;-81
2021/07/03 02:24:04;;;;;;;12.77;8.93;;;;;;;14.66;nan;100868.84;5025167;28;20038;-81
2021/07/03 02:26:31;;;;;;;11.65;9.35;;;;;;;14.59;nan;100865.50;5006970;28;20099;-81
2021/07/03 02:28:58;;;;;;;14.32;10.70;;;;;;;14.55;nan;100869.19;4994278;28;20042;-82
2021/07/03 02:31:25;;;;;;;13.40;10.30;;;;;;;14.58;nan;100861.97;5012080;28;20046;-82
2021/07/03 02:33:52;;;;;;;11.60;9.50;;;;;;;14.50;nan;100874.66;5013058;28;20073;-80
2021/07/03 02:36:19;;;;;;;14.27;10.35;;;;;;;14.40;nan;100865.22;5032661;28;20369;-82
2021/07/03 02:38:46;;;;;;;13.13;9.48;;;;;;;14.34;nan;100873.38;5023574;28;20045;-81
2021/07/03 02:41:13;;;;;;;12.25;9.80;;;;;;;14.30;nan;100872.63;5027860;28;20524;-82
2021/07/03 02:43:40;;;;;;;13.18;9.55;;;;;;;14.20;nan;100867.63;4998892;28;20120;-82
2021/07/03 02:46:07;;;;;;;12.57;9.63;;;;;;;14.21;nan;100874.69;5007954;28;20507;-82
2021/07/03 02:48:34;;;;;;;11.90;9.23;;;;;;;14.20;nan;100875.63;5011307;28;20511;-80
2021/07/03 02:51:00;;;;;;;13.85;10.13;;;;;;;14.16;nan;100869.53;5027935;28;20092;-81
2021/07/03 02:53:27;;;;;;;12.07;9.45;;;;;;;14.13;nan;100867.00;5027718;28;20038;-82
2021/07/03 02:55:54;;;;;;;12.05;8.90;;;;;;;14.10;nan;100875.03;5027548;28;20038;-81
2021/07/03 02:58:21;;;;;;;14.50;10.38;;;;;;;14.01;nan;100865.56;4995330;28;20053;-82
2021/07/03 03:00:47;;;;;;;13.93;9.88;;;;;;;14.03;nan;100871.69;4976841;28;20038;-81
2021/07/03 03:03:14;;;;;;;15.52;10.48;;;;;;;13.98;nan;100864.81;5012289;28;20052;-81
2021/07/03 03:05:41;;;;;;;14.68;10.52;;;;;;;14.00;nan;100868.28;5010977;28;20634;-81
2021/07/03 03:08:08;;;;;;;14.55;10.35;;;;;;;14.00;nan;100874.47;4995297;28;20042;-80
2021/07/03 03:10:34;;;;;;;15.48;10.48;;;;;;;14.02;nan;100879.72;5010215;28;20046;-80
2021/07/03 03:13:01;;;;;;;14.20;10.90;;;;;;;13.94;nan;100869.34;5005762;28;20603;-82
2021/07/03 03:15:28;;;;;;;14.13;10.70;;;;;;;13.97;nan;100887.84;5011667;28;20049;-82
2021/07/03 03:17:55;;;;;;;14.18;10.43;;;;;;;14.00;nan;100884.22;5012866;28;20041;-82
2021/07/03 03:20:22;;;;;;;13.40;10.60;;;;;;;14.00;nan;100884.22;5026651;28;20042;-81
2021/07/03 03:22:48;;;;;;;16.30;11.75;;;;;;;13.96;nan;100877.28;4995945;28;20048;-81
2021/07/03 03:25:15;;;;;;;13.27;10.13;;;;;;;13.93;nan;100875.56;5019542;28;20471;-81
2021/07/03 03:27:43;;;;;;;13.43;9.90;;;;;;;13.93;nan;100867.59;5026259;28;20559;-81
2021/07/03 03:30:11;;;;;;;15.13;11.38;;;;;;;13.95;nan;100878.16;5010875;28;20069;-81
2021/07/03 03:32:38;;;;;;;13.98;10.18;;;;;;;13.91;nan;100879.19;5010415;28;20042;-82
2021/07/03 03:35:07;;;;;;;16.50;10.80;;;;;;;13.91;nan;100873.88;4993739;28;20057;-81
2021/07/03 03:37:34;;;;;;;15.57;11.75;;;;;;;13.95;nan;100872.84;4994939;28;20034;-80
2021/07/03 03:40:00;;;;;;;16.10;10.82;;;;;;;14.01;nan;100878.84;5011782;28;20069;-81
2021/07/03 03:42:27;;;;;;;14.50;10.93;;;;;;;13.99;nan;100880.69;5010246;28;20049;-80
2021/07/03 03:44:54;;;;;;;15.63;12.10;;;;;;;13.95;nan;100881.69;5010499;28;20034;-81
2021/07/03 03:47:20;;;;;;;11.93;9.43;;;;;;;13.93;nan;100880.88;4994024;28;20129;-81
2021/07/03 03:49:47;;;;;;;15.85;11.68;;;;;;;13.92;nan;100883.59;5011071;28;20042;-80
2021/07/03 03:52:14;;;;;;;13.52;10.23;;;;;;;13.90;nan;100882.78;5009742;28;20042;-81
2021/07/03 03:54:41;;;;;;;15.85;10.55;;;;;;;13.84;nan;100885.59;5009068;28;20065;-82
2021/07/03 03:57:29;;;;;;;13.57;10.18;;;;;;;13.87;nan;100890.81;5008940;28;20523;-78
2021/07/03 03:59:57;;;;;;;14.60;10.68;;;;;;;13.96;nan;100883.47;5021108;28;20050;-80
2021/07/03 04:02:24;;;;;;;13.45;10.65;;;;;;;14.02;nan;100883.25;4992646;28;20057;-80
2021/07/03 04:04:51;;;;;;;17.00;11.80;;;;;;;14.12;nan;100885.63;5031885;28;20030;-80
2021/07/03 04:07:19;;;;;;;17.10;12.18;;;;;;;14.15;nan;100882.88;5004731;28;20631;-79
2021/07/03 04:09:46;;;;;;;17.33;11.65;;;;;;;14.24;nan;100878.13;5020765;28;20049;-80
2021/07/03 04:12:14;;;;;;;15.57;11.75;;;;;;;14.30;nan;100877.09;5023140;28;20124;-81
2021/07/03 04:14:41;;;;;;;15.23;11.10;;;;;;;14.37;nan;100875.94;5009427;28;20503;-80
2021/07/03 04:17:08;;;;;;;16.77;12.15;;;;;;;14.44;nan;100881.94;5025128;28;20064;-81
2021/07/03 04:19:34;;;;;;;15.00;10.95;;;;;;;14.47;nan;100872.13;5026467;28;20046;-81
2021/07/03 04:22:01;;;;;;;18.10;13.10;;;;;;;14.50;nan;100871.13;4973770;28;20073;-80
2021/07/03 04:24:28;;;;;;;13.95;10.98;;;;;;;14.58;nan;100882.38;5026006;28;20053;-80
2021/07/03 04:26:55;;;;;;;17.73;11.35;;;;;;;14.62;nan;100878.69;5018862;28;20050;-79
2021/07/03 04:29:25;;;;;;;18.42;11.90;;;;;;;14.70;nan;100881.97;5026493;28;20077;-80
2021/07/03 04:31:52;;;;;;;18.10;12.55;;;;;;;14.69;nan;100882.88;4991503;28;20049;-80
2021/07/03 04:34:18;;;;;;;17.10;11.98;;;;;;;14.81;nan;100876.28;4993274;28;20056;-80
2021/07/03 04:36:45;;;;;;;17.98;12.68;;;;;;;14.90;nan;100884.81;5008438;28;20562;-81
2021/07/03 04:39:12;;;;;;;16.80;11.80;;;;;;;14.98;nan;100875.72;5009830;28;20080;-80
2021/07/03 04:41:39;;;;;;;18.77;12.82;;;;;;;15.08;nan;100871.78;5017692;28;20042;-81
2021/07/03 04:44:06;;;;;;;17.25;13.15;;;;;;;15.20;nan;100877.53;5008882;28;20045;-81
2021/07/03 04:46:33;;;;;;;16.25;12.98;;;;;;;15.20;nan;100876.66;4991352;28;20135;-79
2021/07/03 04:49:01;;;;;;;18.10;13.45;;;;;;;15.18;nan;100879.38;5010009;28;20057;-80
2021/07/03 04:51:28;;;;;;;16.38;12.20;;;;;;;15.21;nan;100878.38;5012411;28;20101;-79
2021/07/03 04:53:54;;;;;;;17.15;12.25;;;;;;;15.29;nan;100875.47;5009771;28;20069;-80
2021/07/03 04:56:21;;;;;;;16.70;11.55;;;;;;;15.41;nan;100880.34;4991511;28;20522;-80
2021/07/03 04:58:51;;;;;;;17.15;12.93;;;;;;;15.53;nan;100882.53;5006738;28;20046;-80
2021/07/03 05:01:18;;;;;;;15.48;11.25;;;;;;;15.58;nan;100880.59;5007723;28;20534;-79
2021/07/03 05:03:44;;;;;;;15.30;11.45;;;;;;;15.62;nan;100878.69;5026523;28;20038;-80
2021/07/03 05:06:11;;;;;;;15.40;11.43;;;;;;;15.68;nan;100874.00;5004596;28;20125;-81
2021/07/03 05:08:38;;;;;;;16.88;11.73;;;;;;;15.79;nan;100872.72;5007779;28;20069;-80
2021/07/03 05:11:05;;;;;;;18.38;12.15;;;;;;;15.85;nan;100876.03;4992168;28;20049;-81
2021/07/03 05:13:32;;;;;;;17.00;11.30;;;;;;;15.89;nan;100872.34;4993734;28;20064;-80
2021/07/03 05:15:59;;;;;;;17.65;13.02;;;;;;;16.00;nan;100872.78;5008696;28;20069;-81
2021/07/03 05:18:26;;;;;;;17.50;11.25;;;;;;;16.09;nan;100866.19;5010156;28;20455;-82
2021/07/03 05:20:52;;;;;;;16.27;11.50;;;;;;;16.34;nan;100874.09;5007010;28;20511;-80
2021/07/03 05:23:20;;;;;;;16.55;11.63;;;;;;;16.48;nan;100873.50;5007880;28;20496;-81
2021/07/03 05:25:47;;;;;;;13.55;9.98;;;;;;;16.52;nan;100865.31;5011944;28;20038;-79
2021/07/03 05:28:13;;;;;;;16.88;11.25;;;;;;;16.59;nan;100868.59;5013595;28;20038;-84
2021/07/03 05:30:42;;;;;;;13.30;11.57;;;;;;;16.62;nan;100863.13;5012433;28;20034;-79
2021/07/03 05:33:09;;;;;;;18.20;11.98;;;;;;;16.73;nan;100868.94;4997157;28;20080;-81
2021/07/03 05:35:36;;;;;;;13.55;10.13;;;;;;;16.76;nan;100874.13;5012364;28;20120;-81
2021/07/03 05:38:03;;;;;;;14.02;10.77;;;;;;;16.79;nan;100870.44;5029249;28;20511;-81
2021/07/03 05:40:30;;;;;;;15.13;10.70;;;;;;;16.82;nan;100873.88;5027044;28;20513;-81
2021/07/03 05:42:56;;;;;;;13.95;11.63;;;;;;;17.11;nan;100874.38;5011714;28;20560;-81
2021/07/03 05:45:23;;;;;;;13.25;11.35;;;;;;;17.23;nan;100875.63;5008905;28;20052;-80
2021/07/03 05:47:51;;;;;;;12.13;9.32;;;;;;;17.48;nan;100873.59;5009339;28;20073;-82
2021/07/03 05:50:23;;;;;;;14.05;9.43;;;;;;;17.73;nan;100873.38;5012049;28;20132;-82
2021/07/03 05:52:50;;;;;;;11.73;9.40;;;;;;;17.66;nan;100869.25;5024109;28;20112;-81
2021/07/03 05:55:17;;;;;;;12.68;9.88;;;;;;;17.88;nan;100872.66;5011004;28;20124;-80
2021/07/03 05:57:44;;;;;;;11.02;9.27;;;;;;;18.63;nan;100871.66;4995688;28;20034;-82
2021/07/03 06:00:14;;;;;;;10.35;8.98;;;;;;;18.96;nan;100882.47;5029556;28;20050;-81
2021/07/03 06:02:41;;;;;;;11.63;8.77;;;;;;;18.90;nan;100881.94;5009501;28;20134;-81
2021/07/03 06:05:09;;;;;;;13.07;9.55;;;;;;;18.81;nan;100880.59;5012704;28;20573;-82
2021/07/03 06:07:36;;;;;;;11.57;9.43;;;;;;;18.77;nan;100876.34;5011964;28;20519;-81
2021/07/03 06:10:03;;;;;;;9.63;7.85;;;;;;;19.24;nan;100875.69;5011664;28;20045;-81
2021/07/03 06:12:30;;;;;;;13.15;9.02;;;;;;;19.27;nan;100881.75;5024670;28;20581;-81
2021/07/03 06:14:56;;;;;;;11.90;9.23;;;;;;;19.36;nan;100877.72;5012540;28;20052;-82
2021/07/03 06:17:23;;;;;;;10.93;7.80;;;;;;;19.51;nan;100876.91;5010966;28;20042;-81
2021/07/03 06:19:50;;;;;;;10.52;9.02;;;;;;;19.72;nan;100871.34;4996251;28;20431;-81
2021/07/03 06:22:16;;;;;;;10.32;8.48;;;;;;;19.87;nan;100881.22;5010307;28;20508;-82
2021/07/03 06:24:44;;;;;;;10.77;7.97;;;;;;;19.70;nan;100874.09;5022602;28;20046;-82
2021/07/03 06:27:11;;;;;;;9.95;8.15;;;;;;;19.69;nan;100877.75;5011167;28;20046;-82
2021/07/03 06:29:38;;;;;;;9.95;7.80;;;;;;;19.47;nan;100871.78;5011828;28;20054;-81
2021/07/03 06:32:07;;;;;;;8.15;7.00;;;;;;;19.58;nan;100874.75;4987949;28;20042;-82
2021/07/03 06:34:35;;;;;;;8.77;7.30;;;;;;;19.65;nan;100871.66;5013024;28;20049;-82
2021/07/03 06:37:02;;;;;;;7.75;6.47;;;;;;;19.70;nan;100874.09;5029024;28;20036;-83
2021/07/03 06:39:28;;;;;;;8.90;6.80;;;;;;;19.72;nan;100871.34;5016176;28;20042;-81
2021/07/03 06:41:55;;;;;;;8.98;7.00;;;;;;;19.73;nan;100871.25;5027766;28;20412;-82
2021/07/03 06:44:22;;;;;;;11.05;6.65;;;;;;;19.69;nan;100880.41;5029052;28;20415;-82
2021/07/03 06:46:49;;;;;;;9.15;5.90;;;;;;;19.82;nan;100877.91;5024482;28;20586;-81
2021/07/03 06:49:16;;;;;;;7.78;6.25;;;;;;;19.81;nan;100871.69;5000867;28;20084;-82
2021/07/03 06:51:43;;;;;;;8.82;6.97;;;;;;;19.95;nan;100876.28;5010376;28;20433;-80
2021/07/03 06:54:10;;;;;;;7.75;6.47;;;;;;;20.09;nan;100884.41;4995715;28;20042;-82
2021/07/03 06:56:36;;;;;;;6.95;5.90;;;;;;;20.11;nan;100878.97;5010479;28;20077;-83
2021/07/03 06:59:03;;;;;;;7.32;5.60;;;;;;;20.11;nan;100887.91;5018334;28;20042;-81
2021/07/03 07:01:30;;;;;;;6.60;5.22;;;;;;;20.15;nan;100876.03;5006262;28;20081;-84
2021/07/03 07:03:57;;;;;;;7.63;5.70;;;;;;;20.25;nan;100882.59;5015827;28;20073;-82
2021/07/03 07:06:24;;;;;;;7.72;6.30;;;;;;;20.36;nan;100881.13;4995196;28;20096;-82
2021/07/03 07:08:51;;;;;;;6.35;5.30;;;;;;;20.39;nan;100881.81;5011934;28;20037;-82
2021/07/03 07:11:18;;;;;;;7.07;5.55;;;;;;;20.47;nan;100876.03;5027035;28;20792;-81
2021/07/03 07:13:44;;;;;;;6.25;5.38;;;;;;;20.51;nan;100872.19;5029178;28;20041;-84
2021/07/03 07:16:11;;;;;;;6.90;5.43;;;;;;;20.65;nan;100869.56;5012554;28;20670;-84
2021/07/03 07:18:38;;;;;;;7.78;4.95;;;;;;;20.75;nan;100872.59;5012360;28;20042;-85
2021/07/03 07:21:05;;;;;;;7.22;5.30;;;;;;;20.77;nan;100870.69;4992674;28;20131;-83
2021/07/03 07:23:32;;;;;;;5.95;5.10;;;;;;;20.85;nan;100871.09;5018280;28;20558;-81
2021/07/03 07:25:58;;;;;;;11.90;5.55;;;;;;;20.95;nan;100866.91;5008407;28;20657;-82
2021/07/03 07:28:25;;;;;;;5.80;4.50;;;;;;;20.80;nan;100871.34;4992969;28;20046;-82
2021/07/03 07:30:52;;;;;;;7.05;5.68;;;;;;;20.95;nan;100861.53;5008945;28;20042;-83
2021/07/03 07:33:18;;;;;;;8.43;6.07;;;;;;;20.77;nan;100868.00;5009991;28;20042;-82
2021/07/03 07:35:45;;;;;;;7.65;5.53;;;;;;;20.19;nan;100869.56;5011082;28;20046;-83
2021/07/03 07:38:12;;;;;;;6.43;5.10;;;;;;;20.63;nan;100863.44;5027302;28;20503;-80
2021/07/03 07:40:39;;;;;;;6.50;5.30;;;;;;;20.80;nan;100862.44;5010009;28;20056;-81
2021/07/03 07:43:05;;;;;;;7.15;5.38;;;;;;;20.96;nan;100867.75;5012376;28;20376;-82
2021/07/03 07:45:32;;;;;;;6.22;4.75;;;;;;;20.98;nan;100857.78;4993961;28;20038;-84
2021/07/03 07:47:59;;;;;;;7.57;5.40;;;;;;;20.95;nan;100866.03;5018356;28;20081;-81
2021/07/03 07:50:26;;;;;;;6.38;5.30;;;;;;;21.06;nan;100863.56;5010539;28;20053;-83
2021/07/03 07:52:52;;;;;;;5.90;4.72;;;;;;;21.12;nan;100862.31;5017430;28;20037;-82
2021/07/03 07:55:19;;;;;;;5.90;5.25;;;;;;;21.16;nan;100862.03;5022442;28;20058;-82
2021/07/03 07:57:46;;;;;;;5.97;4.97;;;;;;;21.25;nan;100861.47;5010184;28;20069;-81
2021/07/03 08:00:16;;;;;;;7.80;4.88;;;;;;;21.30;nan;100859.41;4994299;28;20034;-82
2021/07/03 08:02:42;;;;;;;8.85;5.40;;;;;;;21.38;nan;100858.94;5011650;28;20066;-81
2021/07/03 08:05:11;;;;;;;7.30;4.47;;;;;;;21.16;nan;100859.34;5010994;28;20554;-82
2021/07/03 08:07:37;;;;;;;6.65;5.05;;;;;;;21.20;nan;100857.34;5010119;28;20048;-81
2021/07/03 08:10:05;;;;;;;7.10;5.18;;;;;;;21.32;nan;100854.78;5024722;28;20111;-83
2021/07/03 08:12:32;;;;;;;7.57;5.28;;;;;;;21.28;nan;100853.25;4992491;28;20073;-84
2021/07/03 08:14:58;;;;;;;6.22;4.80;;;;;;;21.24;nan;100850.81;4996027;28;20107;-83
2021/07/03 08:17:25;;;;;;;7.10;4.80;;;;;;;21.23;nan;100847.25;5024947;28;20049;-80
2021/07/03 08:19:52;;;;;;;4.90;4.32;;;;;;;21.27;nan;100851.53;5010607;28;20046;-83
2021/07/03 08:22:19;;;;;;;5.68;4.80;;;;;;;21.33;nan;100848.44;5025557;28;20459;-83
2021/07/03 08:24:46;;;;;;;7.70;4.85;;;;;;;21.57;nan;100846.03;5009539;28;20042;-83
2021/07/03 08:27:15;;;;;;;5.20;4.70;;;;;;;21.67;nan;100846.31;4991488;28;20034;-82
2021/07/03 08:29:42;;;;;;;7.80;5.47;;;;;;;21.33;nan;100850.28;5010388;28;20048;-80
2021/07/03 08:32:09;;;;;;;7.70;4.72;;;;;;;21.64;nan;100849.22;5002432;28;20052;-81
2021/07/03 08:34:36;;;;;;;8.25;5.97;;;;;;;21.71;nan;100845.19;5008418;28;20050;-81
2021/07/03 08:37:03;;;;;;;7.07;4.90;;;;;;;21.64;nan;100846.53;5017387;28;20042;-82
2021/07/03 08:39:29;;;;;;;7.55;5.50;;;;;;;21.28;nan;100842.50;4999057;28;20043;-82
2021/07/03 08:41:56;;;;;;;6.47;4.78;;;;;;;21.58;nan;100845.09;5008572;28;20129;-83
2021/07/03 08:44:23;;;;;;;6.30;4.90;;;;;;;21.84;nan;100839.88;5023892;28;20046;-83
2021/07/03 08:46:51;;;;;;;9.65;5.03;;;;;;;21.98;nan;100841.66;5008339;28;20038;-82
2021/07/03 08:49:18;;;;;;;7.30;4.32;;;;;;;22.17;nan;100839.53;5009976;28;20052;-83
2021/07/03 08:51:47;;;;;;;5.53;4.43;;;;;;;22.21;nan;100841.06;5008298;28;20046;-82
2021/07/03 08:54:14;;;;;;;5.25;4.35;;;;;;;22.37;nan;100835.53;5009407;28;20038;-83
2021/07/03 08:56:41;;;;;;;6.50;4.45;;;;;;;22.54;nan;100845.16;4991199;28;20490;-82
2021/07/03 08:59:22;;;;;;;5.18;4.40;;;;;;;22.70;nan;100840.44;5025538;28;20037;-83
2021/07/03 09:01:51;;;;;;;5.80;5.05;;;;;;;22.63;nan;100841.84;4992553;28;20515;-83
2021/07/03 09:04:18;;;;;;;5.22;4.60;;;;;;;22.64;nan;100847.13;5009516;28;20052;-82
2021/07/03 09:06:45;;;;;;;6.90;4.65;;;;;;;22.71;nan;100840.38;5023734;28;20050;-84
2021/07/03 09:09:11;;;;;;;8.18;4.72;;;;;;;22.89;nan;100834.72;5026231;28;20088;-83
2021/07/03 09:11:38;;;;;;;7.80;5.13;;;;;;;22.74;nan;100833.88;5008029;28;20041;-83
2021/07/03 09:14:07;;;;;;;5.85;4.28;;;;;;;22.85;nan;100839.44;5021380;28;20035;-82
2021/07/03 09:16:35;;;;;;;7.30;5.30;;;;;;;22.81;nan;100829.81;5024834;28;20049;-83
2021/07/03 09:19:04;;;;;;;6.05;4.45;;;;;;;22.74;nan;100833.88;5008196;28;20042;-83
2021/07/03 09:21:32;;;;;;;8.18;5.22;;;;;;;22.75;nan;100838.31;5006276;28;20107;-82
2021/07/03 09:24:00;;;;;;;5.90;4.82;;;;;;;22.61;nan;100831.16;5009622;28;20065;-82
2021/07/03 09:26:26;;;;;;;6.53;4.53;;;;;;;22.42;nan;100831.53;4965509;28;20493;-81
2021/07/03 09:28:54;;;;;;;6.95;4.45;;;;;;;22.09;nan;100820.31;4991969;28;20128;-84
2021/07/03 09:31:21;;;;;;;7.00;4.38;;;;;;;22.33;nan;100824.09;5008518;28;20112;-83
2021/07/03 09:33:50;;;;;;;6.57;4.15;;;;;;;22.04;nan;100825.13;5010044;28;20508;-83
2021/07/03 09:36:28;;;;;;;5.57;4.43;;;;;;;22.37;nan;100820.25;4991931;28;20064;-82
2021/07/03 09:38:58;;;;;;;8.52;5.43;;;;;;;22.50;nan;100825.66;5010266;28;20029;-82
2021/07/03 09:41:36;;;;;;;7.07;4.45;;;;;;;22.55;nan;100825.34;5009076;28;20042;-82
2021/07/03 09:44:12;;;;;;;6.38;4.03;;;;;;;22.40;nan;100821.84;4990981;28;20050;-83
2021/07/03 09:46:51;;;;;;;9.90;6.13;;;;;;;22.27;nan;100819.09;5013363;28;20096;-82
2021/07/03 09:49:25;;;;;;;5.30;4.43;;;;;;;22.13;nan;100819.19;5008971;28;20786;-81
2021/07/03 09:51:53;;;;;;;5.13;4.47;;;;;;;21.77;nan;100817.88;5015731;28;20042;-82
2021/07/03 09:54:23;;;;;;;5.85;4.47;;;;;;;21.78;nan;100819.63;4990575;28;20077;-84
2021/07/03 09:56:59;;;;;;;15.68;5.10;;;;;;;21.99;nan;100819.19;5007919;28;20531;-85
2021/07/03 09:59:31;;;;;;;5.65;4.25;;;;;;;22.14;nan;100820.91;5027447;28;20544;-85
2021/07/03 10:01:59;;;;;;;5.18;4.28;;;;;;;22.54;nan;100818.25;5010388;28;20042;-86
2021/07/03 10:04:26;;;;;;;5.45;4.65;;;;;;;22.61;nan;100819.53;4986841;28;20050;-84
2021/07/03 10:07:05;;;;;;;8.05;5.10;;;;;;;22.75;nan;100811.38;4988840;28;20508;-85
2021/07/03 10:09:36;;;;;;;6.28;4.70;;;;;;;22.17;nan;100813.47;5001819;28;20092;-82
2021/07/03 10:12:11;;;;;;;5.88;4.28;;;;;;;22.43;nan;100811.72;5004616;28;20034;-83
2021/07/03 10:14:40;;;;;;;5.20;4.25;;;;;;;22.48;nan;100806.91;5015568;28;20053;-82
2021/07/03 10:17:06;;;;;;;5.35;4.18;;;;;;;22.89;nan;100811.31;5019379;28;20100;-83
2021/07/03 10:19:35;;;;;;;6.28;4.95;;;;;;;23.01;nan;100801.50;5026362;28;20050;-83
2021/07/03 10:22:25;;;;;;;5.82;4.35;;;;;;;23.58;nan;100806.44;5011560;28;20087;-82
2021/07/03 10:24:58;;;;;;;4.63;4.20;;;;;;;24.01;nan;100804.16;5012170;28;20091;-83
2021/07/03 10:27:30;;;;;;;8.30;4.53;;;;;;;23.54;nan;100805.78;5004625;28;20049;-83
2021/07/03 10:29:58;;;;;;;6.15;4.32;;;;;;;23.61;nan;100794.56;4992666;28;20408;-82
2021/07/03 10:32:30;;;;;;;5.78;4.13;;;;;;;24.03;nan;100804.03;5005960;28;20519;-83
2021/07/03 10:35:22;;;;;;;7.70;5.03;;;;;;;24.28;nan;100787.72;5012975;28;20041;-83
2021/07/03 10:37:49;;;;;;;5.55;4.40;;;;;;;24.70;nan;100782.75;5029848;28;20041;-81
2021/07/03 10:40:22;;;;;;;4.90;3.95;;;;;;;24.53;nan;100775.94;5012372;28;20042;-84
2021/07/03 10:42:50;;;;;;;5.60;4.40;;;;;;;24.52;nan;100786.88;4997791;28;20046;-83
2021/07/03 10:45:22;;;;;;;7.53;4.25;;;;;;;24.18;nan;100786.72;5009696;28;20056;-82
2021/07/03 10:47:53;;;;;;;5.22;3.63;;;;;;;23.98;nan;100787.34;5000023;28;20038;-83
2021/07/03 10:50:28;;;;;;;4.82;4.13;;;;;;;24.06;nan;100791.19;5013618;28;20045;-83
2021/07/03 10:52:57;;;;;;;4.88;4.25;;;;;;;24.07;nan;100786.66;4997348;28;20181;-84
2021/07/03 10:55:39;;;;;;;4.20;3.78;;;;;;;23.93;nan;100784.13;5011918;28;20045;-82
2021/07/03 10:58:15;;;;;;;4.07;3.50;;;;;;;23.88;nan;100795.28;5026255;28;20038;-87
2021/07/03 11:00:42;;;;;;;5.35;3.92;;;;;;;24.06;nan;100795.75;5022483;28;20041;-82
2021/07/03 11:03:19;;;;;;;5.05;4.18;;;;;;;24.26;nan;100789.69;4994132;28;20042;-83
2021/07/03 11:05:46;;;;;;;5.60;3.90;;;;;;;24.29;nan;100783.19;4995766;28;20503;-85
2021/07/03 11:08:23;;;;;;;5.88;3.83;;;;;;;24.27;nan;100791.41;5015197;28;20037;-83
2021/07/03 11:10:50;;;;;;;3.72;3.42;;;;;;;24.33;nan;100784.72;5010903;28;20073;-82
2021/07/03 11:13:24;;;;;;;4.00;3.40;;;;;;;24.39;nan;100787.81;5011947;28;20046;-83
2021/07/03 11:15:52;;;;;;;5.55;3.72;;;;;;;24.77;nan;100786.69;5002784;28;20048;-83
2021/07/03 11:18:19;;;;;;;4.65;3.47;;;;;;;24.98;nan;100778.78;5009692;28;20088;-83
2021/07/03 11:20:46;;;;;;;4.47;3.65;;;;;;;24.99;nan;100775.94;5007736;28;20046;-81
2021/07/03 11:23:13;;;;;;;4.60;3.40;;;;;;;25.17;nan;100773.66;5010336;28;20081;-83
2021/07/03 11:25:44;;;;;;;4.63;3.67;;;;;;;25.00;nan;100771.38;5010079;28;20048;-82
2021/07/03 11:28:17;;;;;;;4.32;3.42;;;;;;;25.31;nan;100774.38;5009611;28;20065;-82
2021/07/03 11:30:49;;;;;;;4.85;3.75;;;;;;;25.32;nan;100776.13;5009898;28;20041;-83
2021/07/03 11:33:15;;;;;;;4.57;3.58;;;;;;;25.23;nan;100767.75;5010285;28;20046;-82
2021/07/03 11:35:48;;;;;;;4.63;3.88;;;;;;;25.41;nan;100773.53;5011471;28;20085;-83
2021/07/03 11:38:18;;;;;;;5.60;3.45;;;;;;;25.76;nan;100764.41;5020221;28;20042;-81